sensor_id;sensor_type;location;lat;lon;timestamp;P1;durP1;ratioP1;P2;durP2;ratioP2
24090;SDS011;12272;52.426;17.100;2023-09-12T00:00:53;18.73;;;12.40;;
24090;SDS011;12272;52.426;17.100;2023-09-12T00:05:57;19.10;;;13.15;;
24090;SDS011;12272;52.426;17.100;2023-09-12T00:11:04;16.63;;;11.88;;
24090;SDS011;12272;52.426;17.100;2023-09-12T00:16:12;13.20;;;11.80;;
24090;SDS011;12272;52.426;17.100;2023-09-12T00:21:14;21.73;;;11.70;;
24090;SDS011;12272;52.426;17.100;2023-09-12T00:26:17;12.15;;;10.10;;
24090;SDS011;12272;52.426;17.100;2023-09-12T00:31:20;20.58;;;13.35;;
24090;SDS011;12272;52.426;17.100;2023-09-12T00:36:22;14.90;;;12.32;;
24090;SDS011;12272;52.426;17.100;2023-09-12T00:41:25;15.63;;;11.63;;
24090;SDS011;12272;52.426;17.100;2023-09-12T00:46:27;13.88;;;11.30;;
24090;SDS011;12272;52.426;17.100;2023-09-12T00:51:31;13.82;;;10.80;;
24090;SDS011;12272;52.426;17.100;2023-09-12T00:56:36;16.27;;;10.57;;
24090;SDS011;12272;52.426;17.100;2023-09-12T01:01:39;16.33;;;12.13;;
24090;SDS011;12272;52.426;17.100;2023-09-12T01:06:41;14.32;;;11.38;;
24090;SDS011;12272;52.426;17.100;2023-09-12T01:11:45;16.52;;;12.60;;
24090;SDS011;12272;52.426;17.100;2023-09-12T01:16:48;13.15;;;11.38;;
24090;SDS011;12272;52.426;17.100;2023-09-12T01:32:32;18.15;;;12.02;;
24090;SDS011;12272;52.426;17.100;2023-09-12T01:37:36;12.13;;;10.25;;
24090;SDS011;12272;52.426;17.100;2023-09-12T01:42:46;16.83;;;11.43;;
24090;SDS011;12272;52.426;17.100;2023-09-12T01:47:50;16.08;;;10.77;;
24090;SDS011;12272;52.426;17.100;2023-09-12T01:52:53;12.90;;;10.57;;
24090;SDS011;12272;52.426;17.100;2023-09-12T01:57:56;12.07;;;10.88;;
24090;SDS011;12272;52.426;17.100;2023-09-12T02:03:00;15.52;;;10.63;;
24090;SDS011;12272;52.426;17.100;2023-09-12T02:08:03;11.50;;;10.30;;
24090;SDS011;12272;52.426;17.100;2023-09-12T02:13:06;16.95;;;12.32;;
24090;SDS011;12272;52.426;17.100;2023-09-12T02:18:09;18.17;;;12.27;;
24090;SDS011;12272;52.426;17.100;2023-09-12T02:23:12;13.52;;;11.68;;
24090;SDS011;12272;52.426;17.100;2023-09-12T02:28:14;13.50;;;11.38;;
24090;SDS011;12272;52.426;17.100;2023-09-12T02:33:17;18.25;;;11.68;;
24090;SDS011;12272;52.426;17.100;2023-09-12T02:38:20;18.50;;;11.85;;
24090;SDS011;12272;52.426;17.100;2023-09-12T02:43:22;16.35;;;10.98;;
24090;SDS011;12272;52.426;17.100;2023-09-12T02:48:25;14.00;;;10.20;;
24090;SDS011;12272;52.426;17.100;2023-09-12T02:53:27;14.07;;;8.65;;
24090;SDS011;12272;52.426;17.100;2023-09-12T02:58:30;16.08;;;10.85;;
24090;SDS011;12272;52.426;17.100;2023-09-12T03:03:34;16.05;;;11.13;;
24090;SDS011;12272;52.426;17.100;2023-09-12T03:08:37;15.30;;;11.40;;
24090;SDS011;12272;52.426;17.100;2023-09-12T03:13:40;13.65;;;10.73;;
24090;SDS011;12272;52.426;17.100;2023-09-12T03:18:44;15.38;;;10.88;;
24090;SDS011;12272;52.426;17.100;2023-09-12T03:23:47;10.73;;;9.63;;
24090;SDS011;12272;52.426;17.100;2023-09-12T03:28:49;13.88;;;10.95;;
24090;SDS011;12272;52.426;17.100;2023-09-12T03:33:53;12.73;;;10.48;;
24090;SDS011;12272;52.426;17.100;2023-09-12T03:38:56;15.15;;;10.45;;
24090;SDS011;12272;52.426;17.100;2023-09-12T03:43:58;26.00;;;12.00;;
24090;SDS011;12272;52.426;17.100;2023-09-12T03:49:01;14.40;;;11.18;;
24090;SDS011;12272;52.426;17.100;2023-09-12T03:54:03;15.20;;;11.32;;
24090;SDS011;12272;52.426;17.100;2023-09-12T03:59:06;14.00;;;10.85;;
24090;SDS011;12272;52.426;17.100;2023-09-12T04:04:09;15.52;;;10.48;;
24090;SDS011;12272;52.426;17.100;2023-09-12T04:09:12;12.15;;;9.60;;
24090;SDS011;12272;52.426;17.100;2023-09-12T04:14:14;10.20;;;9.25;;
24090;SDS011;12272;52.426;17.100;2023-09-12T04:19:17;12.88;;;10.45;;
24090;SDS011;12272;52.426;17.100;2023-09-12T04:24:20;14.93;;;10.43;;
24090;SDS011;12272;52.426;17.100;2023-09-12T04:29:23;21.10;;;11.43;;
24090;SDS011;12272;52.426;17.100;2023-09-12T04:34:26;18.30;;;10.73;;
24090;SDS011;12272;52.426;17.100;2023-09-12T04:39:29;16.33;;;9.95;;
24090;SDS011;12272;52.426;17.100;2023-09-12T04:44:35;28.70;;;11.75;;
24090;SDS011;12272;52.426;17.100;2023-09-12T04:49:39;27.75;;;11.88;;
24090;SDS011;12272;52.426;17.100;2023-09-12T04:54:42;16.33;;;9.80;;
24090;SDS011;12272;52.426;17.100;2023-09-12T04:59:45;25.10;;;11.35;;
24090;SDS011;12272;52.426;17.100;2023-09-12T05:04:48;22.50;;;11.57;;
24090;SDS011;12272;52.426;17.100;2023-09-12T05:09:50;21.98;;;11.43;;
24090;SDS011;12272;52.426;17.100;2023-09-12T05:14:53;32.78;;;11.98;;
24090;SDS011;12272;52.426;17.100;2023-09-12T05:19:56;22.50;;;11.43;;
24090;SDS011;12272;52.426;17.100;2023-09-12T05:24:59;24.02;;;11.73;;
24090;SDS011;12272;52.426;17.100;2023-09-12T05:30:01;20.35;;;11.30;;
24090;SDS011;12272;52.426;17.100;2023-09-12T05:35:04;18.45;;;10.18;;
24090;SDS011;12272;52.426;17.100;2023-09-12T05:40:23;17.88;;;10.65;;
24090;SDS011;12272;52.426;17.100;2023-09-12T05:45:26;16.40;;;10.32;;
24090;SDS011;12272;52.426;17.100;2023-09-12T05:50:32;18.38;;;11.15;;
24090;SDS011;12272;52.426;17.100;2023-09-12T05:55:34;14.65;;;10.57;;
24090;SDS011;12272;52.426;17.100;2023-09-12T06:00:37;16.80;;;11.70;;
24090;SDS011;12272;52.426;17.100;2023-09-12T06:05:40;25.73;;;12.73;;
24090;SDS011;12272;52.426;17.100;2023-09-12T06:10:42;20.40;;;13.52;;
24090;SDS011;12272;52.426;17.100;2023-09-12T06:15:45;22.17;;;14.95;;
24090;SDS011;12272;52.426;17.100;2023-09-12T06:20:47;30.80;;;16.80;;
24090;SDS011;12272;52.426;17.100;2023-09-12T06:25:51;39.65;;;16.88;;
24090;SDS011;12272;52.426;17.100;2023-09-12T06:30:54;15.82;;;9.95;;
24090;SDS011;12272;52.426;17.100;2023-09-12T06:35:56;19.98;;;12.65;;
24090;SDS011;12272;52.426;17.100;2023-09-12T06:40:59;16.83;;;10.07;;
24090;SDS011;12272;52.426;17.100;2023-09-12T06:46:02;15.88;;;12.40;;
24090;SDS011;12272;52.426;17.100;2023-09-12T06:51:05;9.95;;;7.88;;
24090;SDS011;12272;52.426;17.100;2023-09-12T06:56:15;13.52;;;9.45;;
24090;SDS011;12272;52.426;17.100;2023-09-12T07:01:18;19.98;;;14.68;;
24090;SDS011;12272;52.426;17.100;2023-09-12T07:06:21;15.38;;;9.48;;
24090;SDS011;12272;52.426;17.100;2023-09-12T07:11:23;11.95;;;7.00;;
24090;SDS011;12272;52.426;17.100;2023-09-12T07:16:26;34.08;;;21.00;;
24090;SDS011;12272;52.426;17.100;2023-09-12T07:21:29;15.88;;;11.05;;
24090;SDS011;12272;52.426;17.100;2023-09-12T07:26:31;32.53;;;21.35;;
24090;SDS011;12272;52.426;17.100;2023-09-12T07:31:34;24.33;;;18.33;;
24090;SDS011;12272;52.426;17.100;2023-09-12T07:36:37;11.25;;;9.13;;
24090;SDS011;12272;52.426;17.100;2023-09-12T07:41:40;15.55;;;12.35;;
24090;SDS011;12272;52.426;17.100;2023-09-12T07:46:43;18.73;;;13.85;;
24090;SDS011;12272;52.426;17.100;2023-09-12T07:51:46;17.10;;;13.90;;
24090;SDS011;12272;52.426;17.100;2023-09-12T07:56:49;24.88;;;16.92;;
24090;SDS011;12272;52.426;17.100;2023-09-12T08:01:51;10.25;;;8.45;;
24090;SDS011;12272;52.426;17.100;2023-09-12T08:06:54;11.07;;;8.57;;
24090;SDS011;12272;52.426;17.100;2023-09-12T08:11:59;15.95;;;11.95;;
24090;SDS011;12272;52.426;17.100;2023-09-12T08:17:02;7.80;;;6.97;;
24090;SDS011;12272;52.426;17.100;2023-09-12T08:22:05;9.75;;;7.88;;
24090;SDS011;12272;52.426;17.100;2023-09-12T08:27:09;16.48;;;12.50;;
24090;SDS011;12272;52.426;17.100;2023-09-12T08:32:12;7.15;;;6.45;;
24090;SDS011;12272;52.426;17.100;2023-09-12T08:37:15;19.40;;;14.18;;
24090;SDS011;12272;52.426;17.100;2023-09-12T08:42:17;19.00;;;13.15;;
24090;SDS011;12272;52.426;17.100;2023-09-12T08:47:22;9.13;;;8.18;;
24090;SDS011;12272;52.426;17.100;2023-09-12T08:52:26;12.60;;;11.23;;
24090;SDS011;12272;52.426;17.100;2023-09-12T08:57:30;10.73;;;9.02;;
24090;SDS011;12272;52.426;17.100;2023-09-12T09:02:35;9.90;;;8.60;;
24090;SDS011;12272;52.426;17.100;2023-09-12T09:07:39;22.23;;;17.65;;
24090;SDS011;12272;52.426;17.100;2023-09-12T09:12:43;14.35;;;10.77;;
24090;SDS011;12272;52.426;17.100;2023-09-12T09:17:47;15.15;;;8.93;;
24090;SDS011;12272;52.426;17.100;2023-09-12T09:22:58;7.35;;;6.65;;
24090;SDS011;12272;52.426;17.100;2023-09-12T09:28:03;11.50;;;9.90;;
24090;SDS011;12272;52.426;17.100;2023-09-12T09:33:07;13.38;;;11.35;;
24090;SDS011;12272;52.426;17.100;2023-09-12T09:38:10;13.60;;;8.80;;
24090;SDS011;12272;52.426;17.100;2023-09-12T09:43:21;13.43;;;9.32;;
24090;SDS011;12272;52.426;17.100;2023-09-12T09:48:24;15.00;;;11.00;;
24090;SDS011;12272;52.426;17.100;2023-09-12T09:53:31;11.48;;;9.38;;
24090;SDS011;12272;52.426;17.100;2023-09-12T09:58:41;7.32;;;6.40;;
24090;SDS011;12272;52.426;17.100;2023-09-12T10:03:57;17.08;;;10.77;;
24090;SDS011;12272;52.426;17.100;2023-09-12T10:09:03;7.95;;;7.15;;
24090;SDS011;12272;52.426;17.100;2023-09-12T10:14:12;7.57;;;6.85;;
24090;SDS011;12272;52.426;17.100;2023-09-12T10:25:01;6.75;;;6.15;;
24090;SDS011;12272;52.426;17.100;2023-09-12T10:30:05;9.90;;;8.10;;
24090;SDS011;12272;52.426;17.100;2023-09-12T10:35:10;12.27;;;9.70;;
24090;SDS011;12272;52.426;17.100;2023-09-12T10:40:13;9.98;;;9.02;;
24090;SDS011;12272;52.426;17.100;2023-09-12T10:45:18;8.25;;;7.00;;
24090;SDS011;12272;52.426;17.100;2023-09-12T10:50:22;12.10;;;8.50;;
24090;SDS011;12272;52.426;17.100;2023-09-12T10:55:25;15.10;;;8.80;;
24090;SDS011;12272;52.426;17.100;2023-09-12T11:00:30;10.50;;;9.50;;
24090;SDS011;12272;52.426;17.100;2023-09-12T11:05:37;11.02;;;10.00;;
24090;SDS011;12272;52.426;17.100;2023-09-12T11:16:24;13.57;;;9.10;;
24090;SDS011;12272;52.426;17.100;2023-09-12T11:21:33;11.85;;;9.38;;
24090;SDS011;12272;52.426;17.100;2023-09-12T11:26:36;12.32;;;10.38;;
24090;SDS011;12272;52.426;17.100;2023-09-12T11:31:57;10.45;;;9.07;;
24090;SDS011;12272;52.426;17.100;2023-09-12T11:37:01;10.48;;;8.43;;
24090;SDS011;12272;52.426;17.100;2023-09-12T11:42:05;12.80;;;10.85;;
24090;SDS011;12272;52.426;17.100;2023-09-12T11:47:14;11.45;;;9.93;;
24090;SDS011;12272;52.426;17.100;2023-09-12T11:52:17;10.45;;;9.38;;
24090;SDS011;12272;52.426;17.100;2023-09-12T11:57:22;11.88;;;10.13;;
24090;SDS011;12272;52.426;17.100;2023-09-12T12:02:24;10.30;;;9.30;;
24090;SDS011;12272;52.426;17.100;2023-09-12T12:07:27;14.25;;;9.45;;
24090;SDS011;12272;52.426;17.100;2023-09-12T12:12:29;10.70;;;9.60;;
24090;SDS011;12272;52.426;17.100;2023-09-12T12:17:32;13.13;;;11.23;;
24090;SDS011;12272;52.426;17.100;2023-09-12T12:22:34;11.23;;;10.10;;
24090;SDS011;12272;52.426;17.100;2023-09-12T12:27:41;13.07;;;10.05;;
24090;SDS011;12272;52.426;17.100;2023-09-12T12:32:45;7.93;;;7.10;;
24090;SDS011;12272;52.426;17.100;2023-09-12T12:37:54;12.63;;;11.02;;
24090;SDS011;12272;52.426;17.100;2023-09-12T12:43:17;10.63;;;9.63;;
24090;SDS011;12272;52.426;17.100;2023-09-12T12:48:34;10.90;;;9.13;;
24090;SDS011;12272;52.426;17.100;2023-09-12T12:53:41;9.52;;;8.55;;
24090;SDS011;12272;52.426;17.100;2023-09-12T12:58:55;11.18;;;9.52;;
24090;SDS011;12272;52.426;17.100;2023-09-12T13:03:59;10.60;;;8.13;;
24090;SDS011;12272;52.426;17.100;2023-09-12T13:09:03;11.07;;;9.52;;
24090;SDS011;12272;52.426;17.100;2023-09-12T13:14:07;13.27;;;9.77;;
24090;SDS011;12272;52.426;17.100;2023-09-12T13:19:14;10.50;;;9.40;;
24090;SDS011;12272;52.426;17.100;2023-09-12T13:24:16;16.13;;;9.55;;
24090;SDS011;12272;52.426;17.100;2023-09-12T13:29:19;12.55;;;9.95;;
24090;SDS011;12272;52.426;17.100;2023-09-12T13:34:21;12.60;;;10.23;;
24090;SDS011;12272;52.426;17.100;2023-09-12T13:39:24;14.20;;;10.02;;
24090;SDS011;12272;52.426;17.100;2023-09-12T13:44:27;11.15;;;9.13;;
24090;SDS011;12272;52.426;17.100;2023-09-12T13:49:30;12.77;;;9.32;;
24090;SDS011;12272;52.426;17.100;2023-09-12T13:54:32;13.50;;;8.40;;
24090;SDS011;12272;52.426;17.100;2023-09-12T13:59:35;12.32;;;11.02;;
24090;SDS011;12272;52.426;17.100;2023-09-12T14:04:47;12.05;;;10.10;;
24090;SDS011;12272;52.426;17.100;2023-09-12T14:10:00;9.85;;;8.68;;
24090;SDS011;12272;52.426;17.100;2023-09-12T14:15:04;14.57;;;10.02;;
24090;SDS011;12272;52.426;17.100;2023-09-12T14:20:10;13.43;;;8.68;;
24090;SDS011;12272;52.426;17.100;2023-09-12T14:25:17;10.20;;;9.20;;
24090;SDS011;12272;52.426;17.100;2023-09-12T14:30:20;13.35;;;10.60;;
24090;SDS011;12272;52.426;17.100;2023-09-12T14:35:24;13.05;;;10.93;;
24090;SDS011;12272;52.426;17.100;2023-09-12T14:40:27;13.40;;;10.73;;
24090;SDS011;12272;52.426;17.100;2023-09-12T14:45:29;10.27;;;9.27;;
24090;SDS011;12272;52.426;17.100;2023-09-12T14:50:32;11.75;;;9.13;;
24090;SDS011;12272;52.426;17.100;2023-09-12T14:55:44;11.77;;;10.57;;
24090;SDS011;12272;52.426;17.100;2023-09-12T15:00:47;10.90;;;8.95;;
24090;SDS011;12272;52.426;17.100;2023-09-12T15:05:50;11.05;;;9.90;;
24090;SDS011;12272;52.426;17.100;2023-09-12T15:10:52;10.52;;;9.45;;
24090;SDS011;12272;52.426;17.100;2023-09-12T15:15:55;10.95;;;9.65;;
24090;SDS011;12272;52.426;17.100;2023-09-12T15:20:57;10.02;;;9.05;;
24090;SDS011;12272;52.426;17.100;2023-09-12T15:26:00;9.77;;;8.77;;
24090;SDS011;12272;52.426;17.100;2023-09-12T15:31:03;9.65;;;8.75;;
24090;SDS011;12272;52.426;17.100;2023-09-12T15:36:06;9.95;;;8.95;;
24090;SDS011;12272;52.426;17.100;2023-09-12T15:41:09;14.18;;;10.35;;
24090;SDS011;12272;52.426;17.100;2023-09-12T15:46:11;9.60;;;8.70;;
24090;SDS011;12272;52.426;17.100;2023-09-12T15:51:33;18.17;;;10.45;;
24090;SDS011;12272;52.426;17.100;2023-09-12T15:56:35;19.85;;;10.38;;
24090;SDS011;12272;52.426;17.100;2023-09-12T16:01:38;20.55;;;11.05;;
24090;SDS011;12272;52.426;17.100;2023-09-12T16:06:41;17.52;;;10.05;;
24090;SDS011;12272;52.426;17.100;2023-09-12T16:11:44;18.05;;;9.32;;
24090;SDS011;12272;52.426;17.100;2023-09-12T16:16:47;18.55;;;10.23;;
24090;SDS011;12272;52.426;17.100;2023-09-12T16:21:50;13.88;;;10.48;;
24090;SDS011;12272;52.426;17.100;2023-09-12T16:26:53;18.50;;;10.80;;
24090;SDS011;12272;52.426;17.100;2023-09-12T16:31:56;15.68;;;9.88;;
24090;SDS011;12272;52.426;17.100;2023-09-12T16:36:59;17.13;;;10.45;;
24090;SDS011;12272;52.426;17.100;2023-09-12T16:42:02;24.50;;;11.73;;
24090;SDS011;12272;52.426;17.100;2023-09-12T16:47:05;36.13;;;12.73;;
24090;SDS011;12272;52.426;17.100;2023-09-12T16:52:08;42.60;;;13.45;;
24090;SDS011;12272;52.426;17.100;2023-09-12T16:57:12;42.95;;;16.95;;
24090;SDS011;12272;52.426;17.100;2023-09-12T17:02:16;34.47;;;13.27;;
24090;SDS011;12272;52.426;17.100;2023-09-12T17:07:18;25.30;;;13.73;;
24090;SDS011;12272;52.426;17.100;2023-09-12T17:12:21;26.80;;;12.80;;
24090;SDS011;12272;52.426;17.100;2023-09-12T17:17:23;19.95;;;12.02;;
24090;SDS011;12272;52.426;17.100;2023-09-12T17:22:26;24.58;;;11.70;;
24090;SDS011;12272;52.426;17.100;2023-09-12T17:27:29;29.50;;;12.00;;
24090;SDS011;12272;52.426;17.100;2023-09-12T17:32:31;31.25;;;15.05;;
24090;SDS011;12272;52.426;17.100;2023-09-12T17:37:34;25.90;;;12.65;;
24090;SDS011;12272;52.426;17.100;2023-09-12T17:42:37;17.48;;;10.52;;
24090;SDS011;12272;52.426;17.100;2023-09-12T17:47:40;25.60;;;12.50;;
24090;SDS011;12272;52.426;17.100;2023-09-12T17:52:42;23.33;;;12.30;;
24090;SDS011;12272;52.426;17.100;2023-09-12T17:57:45;31.25;;;13.48;;
24090;SDS011;12272;52.426;17.100;2023-09-12T18:02:49;34.03;;;13.75;;
24090;SDS011;12272;52.426;17.100;2023-09-12T18:07:52;32.75;;;13.75;;
24090;SDS011;12272;52.426;17.100;2023-09-12T18:12:57;31.63;;;13.90;;
24090;SDS011;12272;52.426;17.100;2023-09-12T18:18:00;33.00;;;13.55;;
24090;SDS011;12272;52.426;17.100;2023-09-12T18:23:03;28.92;;;12.52;;
24090;SDS011;12272;52.426;17.100;2023-09-12T18:28:06;27.83;;;13.63;;
24090;SDS011;12272;52.426;17.100;2023-09-12T18:33:08;32.28;;;15.55;;
24090;SDS011;12272;52.426;17.100;2023-09-12T18:38:11;31.90;;;13.43;;
24090;SDS011;12272;52.426;17.100;2023-09-12T18:43:14;22.40;;;12.52;;
24090;SDS011;12272;52.426;17.100;2023-09-12T18:48:18;33.92;;;13.32;;
24090;SDS011;12272;52.426;17.100;2023-09-12T18:53:21;30.98;;;14.25;;
24090;SDS011;12272;52.426;17.100;2023-09-12T18:58:24;32.58;;;13.45;;
24090;SDS011;12272;52.426;17.100;2023-09-12T19:03:27;22.85;;;13.30;;
24090;SDS011;12272;52.426;17.100;2023-09-12T19:08:30;34.97;;;14.15;;
24090;SDS011;12272;52.426;17.100;2023-09-12T19:13:33;30.58;;;13.40;;
24090;SDS011;12272;52.426;17.100;2023-09-12T19:18:38;39.08;;;13.77;;
24090;SDS011;12272;52.426;17.100;2023-09-12T19:23:41;52.03;;;15.13;;
24090;SDS011;12272;52.426;17.100;2023-09-12T19:28:43;32.28;;;15.50;;
24090;SDS011;12272;52.426;17.100;2023-09-12T19:33:47;20.55;;;11.27;;
24090;SDS011;12272;52.426;17.100;2023-09-12T19:38:49;22.73;;;11.38;;
24090;SDS011;12272;52.426;17.100;2023-09-12T19:43:52;36.22;;;14.52;;
24090;SDS011;12272;52.426;17.100;2023-09-12T19:48:55;29.45;;;13.93;;
24090;SDS011;12272;52.426;17.100;2023-09-12T19:53:57;33.53;;;13.50;;
24090;SDS011;12272;52.426;17.100;2023-09-12T19:59:00;27.58;;;13.93;;
24090;SDS011;12272;52.426;17.100;2023-09-12T20:04:03;31.35;;;14.13;;
24090;SDS011;12272;52.426;17.100;2023-09-12T20:09:05;33.70;;;14.70;;
24090;SDS011;12272;52.426;17.100;2023-09-12T20:14:12;22.13;;;13.23;;
24090;SDS011;12272;52.426;17.100;2023-09-12T20:19:15;29.17;;;13.40;;
24090;SDS011;12272;52.426;17.100;2023-09-12T20:24:18;29.13;;;14.40;;
24090;SDS011;12272;52.426;17.100;2023-09-12T20:29:21;34.70;;;15.43;;
24090;SDS011;12272;52.426;17.100;2023-09-12T20:34:23;27.10;;;15.90;;
24090;SDS011;12272;52.426;17.100;2023-09-12T20:39:27;20.80;;;12.40;;
24090;SDS011;12272;52.426;17.100;2023-09-12T20:44:30;19.88;;;13.60;;
24090;SDS011;12272;52.426;17.100;2023-09-12T20:49:33;26.08;;;15.02;;
24090;SDS011;12272;52.426;17.100;2023-09-12T20:54:38;20.73;;;13.70;;
24090;SDS011;12272;52.426;17.100;2023-09-12T20:59:41;18.85;;;12.30;;
24090;SDS011;12272;52.426;17.100;2023-09-12T21:04:44;17.20;;;12.18;;
24090;SDS011;12272;52.426;17.100;2023-09-12T21:09:47;24.38;;;13.50;;
24090;SDS011;12272;52.426;17.100;2023-09-12T21:14:50;21.92;;;13.27;;
24090;SDS011;12272;52.426;17.100;2023-09-12T21:19:52;10.40;;;9.32;;
24090;SDS011;12272;52.426;17.100;2023-09-12T21:24:55;29.58;;;14.73;;
24090;SDS011;12272;52.426;17.100;2023-09-12T21:29:58;21.98;;;12.75;;
24090;SDS011;12272;52.426;17.100;2023-09-12T21:35:15;19.85;;;14.25;;
24090;SDS011;12272;52.426;17.100;2023-09-12T21:40:21;23.70;;;13.32;;
24090;SDS011;12272;52.426;17.100;2023-09-12T21:45:23;18.20;;;12.48;;
24090;SDS011;12272;52.426;17.100;2023-09-12T21:50:26;25.77;;;14.73;;
24090;SDS011;12272;52.426;17.100;2023-09-12T21:55:29;28.08;;;15.52;;
24090;SDS011;12272;52.426;17.100;2023-09-12T22:00:32;29.83;;;14.60;;
24090;SDS011;12272;52.426;17.100;2023-09-12T22:05:36;16.30;;;11.35;;
24090;SDS011;12272;52.426;17.100;2023-09-12T22:10:39;21.55;;;13.38;;
24090;SDS011;12272;52.426;17.100;2023-09-12T22:15:42;20.50;;;13.80;;
24090;SDS011;12272;52.426;17.100;2023-09-12T22:20:45;25.75;;;15.73;;
24090;SDS011;12272;52.426;17.100;2023-09-12T22:25:48;23.92;;;12.82;;
24090;SDS011;12272;52.426;17.100;2023-09-12T22:30:50;24.80;;;15.27;;
24090;SDS011;12272;52.426;17.100;2023-09-12T22:35:53;23.05;;;13.77;;
24090;SDS011;12272;52.426;17.100;2023-09-12T22:41:13;21.30;;;13.80;;
24090;SDS011;12272;52.426;17.100;2023-09-12T22:46:16;22.48;;;13.20;;
24090;SDS011;12272;52.426;17.100;2023-09-12T22:51:19;25.33;;;15.73;;
24090;SDS011;12272;52.426;17.100;2023-09-12T22:56:21;29.00;;;15.60;;
24090;SDS011;12272;52.426;17.100;2023-09-12T23:01:24;20.25;;;12.82;;
24090;SDS011;12272;52.426;17.100;2023-09-12T23:06:26;26.10;;;14.85;;
24090;SDS011;12272;52.426;17.100;2023-09-12T23:11:29;25.80;;;15.05;;
24090;SDS011;12272;52.426;17.100;2023-09-12T23:16:32;14.82;;;12.07;;
24090;SDS011;12272;52.426;17.100;2023-09-12T23:21:36;20.15;;;13.30;;
24090;SDS011;12272;52.426;17.100;2023-09-12T23:26:39;19.30;;;14.38;;
24090;SDS011;12272;52.426;17.100;2023-09-12T23:31:42;20.70;;;15.00;;
24090;SDS011;12272;52.426;17.100;2023-09-12T23:36:45;25.08;;;16.38;;
24090;SDS011;12272;52.426;17.100;2023-09-12T23:41:47;23.35;;;15.80;;
24090;SDS011;12272;52.426;17.100;2023-09-12T23:46:51;23.92;;;17.40;;
24090;SDS011;12272;52.426;17.100;2023-09-12T23:51:54;26.38;;;16.67;;
24090;SDS011;12272;52.426;17.100;2023-09-12T23:56:57;19.70;;;15.50;;
